createdAt,value
2022-08-17T00:01:30.364Z,97.08
2022-08-17T00:04:10.771Z,96.90
2022-08-17T00:06:38.755Z,97.33
2022-08-17T00:09:05.857Z,97.21
2022-08-17T00:11:36.698Z,97.47
2022-08-17T00:14:06.297Z,97.32
2022-08-17T00:16:55.576Z,97.89
2022-08-17T00:19:25.264Z,97.71
2022-08-17T00:22:31.863Z,97.61
2022-08-17T00:24:42.996Z,97.96
2022-08-17T00:27:09.852Z,98.29
2022-08-17T00:29:36.774Z,98.47
2022-08-17T00:33:15.898Z,98.83
2022-08-17T00:34:52.825Z,98.72
2022-08-17T00:37:19.605Z,98.83
2022-08-17T00:39:46.432Z,98.85
2022-08-17T00:42:14.665Z,98.71
2022-08-17T00:44:41.432Z,98.93
2022-08-17T00:47:08.457Z,99.03
2022-08-17T00:49:35.219Z,99.46
2022-08-17T00:52:12.063Z,99.26
2022-08-17T00:54:43.688Z,98.90
2022-08-17T00:57:15.541Z,98.21
2022-08-17T00:59:50.588Z,98.40
2022-08-17T01:02:30.048Z,98.55
2022-08-17T01:05:01.642Z,98.22
2022-08-17T01:07:29.856Z,98.97
2022-08-17T01:09:57.180Z,99.13
2022-08-17T01:12:23.934Z,99.89
2022-08-17T01:14:50.806Z,99.60
2022-08-17T01:17:17.712Z,99.21
2022-08-17T01:19:45.332Z,98.78
2022-08-17T01:22:19.667Z,98.76
2022-08-17T01:24:50.535Z,98.44
2022-08-17T01:27:18.433Z,98.55
2022-08-17T01:29:51.197Z,98.59
2022-08-17T01:32:19.329Z,98.55
2022-08-17T01:34:50.489Z,98.76
2022-08-17T01:37:20.448Z,98.84
2022-08-17T01:39:50.588Z,98.76
2022-08-17T01:42:24.276Z,98.62
2022-08-17T01:44:56.671Z,98.50
2022-08-17T01:47:23.532Z,98.47
2022-08-17T01:49:50.999Z,98.48
2022-08-17T01:52:22.070Z,98.67
2022-08-17T01:54:50.341Z,98.94
2022-08-17T01:57:17.471Z,98.28
2022-08-17T01:59:44.300Z,97.75
2022-08-17T02:02:11.443Z,97.35
2022-08-17T02:04:56.938Z,97.19
2022-08-17T02:07:27.004Z,97.38
2022-08-17T02:09:54.213Z,97.69
2022-08-17T02:12:37.625Z,97.62
2022-08-17T02:15:06.741Z,97.91
2022-08-17T02:17:33.844Z,97.96
2022-08-17T02:20:00.716Z,98.12
2022-08-17T02:22:29.133Z,98.34
2022-08-17T02:24:59.510Z,98.61
2022-08-17T02:27:28.227Z,99.16
2022-08-17T02:29:54.988Z,99.34
2022-08-17T02:32:28.163Z,99.25
2022-08-17T02:34:56.192Z,99.42
2022-08-17T02:37:23.113Z,99.70
2022-08-17T02:39:51.334Z,99.71
2022-08-17T02:42:18.537Z,99.42
2022-08-17T02:44:45.424Z,99.13
2022-08-17T02:47:12.536Z,99.00
2022-08-17T02:49:39.365Z,98.87
2022-08-17T02:52:07.918Z,98.69
2022-08-17T02:54:39.618Z,98.14
2022-08-17T02:57:10.515Z,98.23
2022-08-17T02:59:37.882Z,98.48
2022-08-17T03:02:06.295Z,98.48
2022-08-17T03:04:35.154Z,98.20
2022-08-17T03:07:02.723Z,98.05
2022-08-17T03:09:29.534Z,98.11
2022-08-17T03:12:04.572Z,97.89
2022-08-17T03:14:32.719Z,98.12
2022-08-17T03:16:59.487Z,98.24
2022-08-17T03:19:26.318Z,98.44
2022-08-17T03:21:55.350Z,98.54
2022-08-17T03:24:28.595Z,98.46
2022-08-17T03:26:55.941Z,98.17
2022-08-17T03:29:22.700Z,98.15
2022-08-17T03:31:50.867Z,98.27
2022-08-17T03:34:18.064Z,97.94
2022-08-17T03:36:45.088Z,97.53
2022-08-17T03:39:12.160Z,96.86
2022-08-17T03:41:39.022Z,97.29
2022-08-17T03:44:05.943Z,97.19
2022-08-17T03:46:51.191Z,97.36
2022-08-17T03:49:37.871Z,97.48
2022-08-17T03:52:23.279Z,97.96
2022-08-17T03:55:08.663Z,96.16
2022-08-17T03:57:35.495Z,93.72
2022-08-17T04:00:02.300Z,90.15
2022-08-17T04:02:38.957Z,91.26
2022-08-17T04:05:08.487Z,93.79
2022-08-17T04:07:35.569Z,94.73
2022-08-17T04:10:02.437Z,95.85
2022-08-17T04:12:42.069Z,97.83
2022-08-17T04:15:09.657Z,99.68
2022-08-17T04:17:36.428Z,100.00
2022-08-17T04:20:04.246Z,100.00
2022-08-17T04:22:34.372Z,100.00
2022-08-17T04:25:04.601Z,100.00
2022-08-17T04:27:31.824Z,100.00
2022-08-17T04:29:58.781Z,100.00
2022-08-17T04:33:05.049Z,100.00
2022-08-17T04:35:12.389Z,100.00
2022-08-17T04:37:40.542Z,100.00
2022-08-17T04:40:27.478Z,100.00
2022-08-17T04:43:01.497Z,100.00
2022-08-17T04:45:32.431Z,100.00
2022-08-17T04:47:59.950Z,100.00
2022-08-17T04:50:26.835Z,100.00
2022-08-17T04:52:57.579Z,100.00
2022-08-17T04:55:24.567Z,100.00
2022-08-17T04:57:51.371Z,100.00
2022-08-17T05:00:18.416Z,100.00
2022-08-17T05:02:49.829Z,100.00
2022-08-17T05:05:18.848Z,100.00
2022-08-17T05:07:45.681Z,100.00
2022-08-17T05:10:13.876Z,100.00
2022-08-17T05:12:40.644Z,100.00
2022-08-17T05:15:12.255Z,100.00
2022-08-17T05:17:39.062Z,100.00
2022-08-17T05:20:06.728Z,100.00
2022-08-17T05:22:33.671Z,100.00
2022-08-17T05:25:01.870Z,100.00
2022-08-17T05:27:35.462Z,100.00
2022-08-17T05:30:03.238Z,100.00
2022-08-17T05:32:39.028Z,100.00
2022-08-17T05:35:07.742Z,100.00
2022-08-17T05:37:34.541Z,100.00
2022-08-17T05:40:01.397Z,100.00
2022-08-17T05:42:28.266Z,100.00
2022-08-17T05:44:58.905Z,100.00
2022-08-17T05:47:26.973Z,100.00
2022-08-17T05:49:54.659Z,100.00
2022-08-17T05:52:29.440Z,100.00
2022-08-17T05:55:11.312Z,100.00
2022-08-17T05:57:53.727Z,100.00
2022-08-17T06:00:30.188Z,100.00
2022-08-17T06:03:15.439Z,100.00
2022-08-17T06:05:54.348Z,100.00
2022-08-17T06:08:27.169Z,100.00
2022-08-17T06:11:01.253Z,99.84
2022-08-17T06:13:39.000Z,99.42
2022-08-17T06:16:33.376Z,99.79
2022-08-17T06:19:02.515Z,99.55
2022-08-17T06:21:35.155Z,99.97
2022-08-17T06:24:07.483Z,99.96
2022-08-17T06:26:42.760Z,99.43
2022-08-17T06:29:23.626Z,100.00
2022-08-17T06:31:52.439Z,100.00
2022-08-17T06:34:20.908Z,99.91
2022-08-17T06:36:56.672Z,99.58
2022-08-17T06:39:41.829Z,98.67
2022-08-17T06:43:05.025Z,97.77
2022-08-17T06:45:10.542Z,97.66
2022-08-17T06:47:47.590Z,96.33
2022-08-17T06:50:20.551Z,96.39
2022-08-17T06:52:53.928Z,95.98
2022-08-17T06:55:28.527Z,97.51
2022-08-17T06:57:59.966Z,97.79
2022-08-17T07:00:38.300Z,96.57
2022-08-17T07:03:24.284Z,96.69
2022-08-17T07:05:55.170Z,94.13
2022-08-17T07:08:35.130Z,95.53
2022-08-17T07:11:05.511Z,94.70
2022-08-17T07:13:42.189Z,95.00
2022-08-17T07:16:18.009Z,95.86
2022-08-17T07:18:49.629Z,96.76
2022-08-17T07:21:31.822Z,96.12
2022-08-17T07:24:29.767Z,97.77
2022-08-17T07:27:06.913Z,98.83
2022-08-17T07:29:40.071Z,99.01
2022-08-17T07:32:07.940Z,99.14
2022-08-17T07:35:10.727Z,98.89
2022-08-17T07:37:40.155Z,99.82
2022-08-17T07:40:20.166Z,99.63
2022-08-17T07:43:22.061Z,99.95
2022-08-17T07:46:25.358Z,99.89
2022-08-17T07:48:55.239Z,99.65
2022-08-17T07:51:38.465Z,100.00
2022-08-17T07:54:22.593Z,100.00
2022-08-17T07:56:52.524Z,99.99
2022-08-17T07:59:23.578Z,98.87
2022-08-17T08:02:06.142Z,98.98
2022-08-17T08:07:29.549Z,99.26
2022-08-17T08:10:09.962Z,99.46
2022-08-17T08:12:39.857Z,99.12
2022-08-17T08:15:17.831Z,99.82
2022-08-17T08:17:52.130Z,99.55
2022-08-17T08:20:50.945Z,99.37
2022-08-17T08:23:25.559Z,99.78
2022-08-17T08:26:06.313Z,99.05
2022-08-17T08:28:44.414Z,98.82
2022-08-17T08:31:24.534Z,98.46
2022-08-17T08:34:01.116Z,98.08
2022-08-17T08:37:14.145Z,98.56
2022-08-17T08:39:42.215Z,98.92
2022-08-17T08:42:19.420Z,99.18
2022-08-17T08:45:01.097Z,99.32
2022-08-17T08:47:45.173Z,99.50
2022-08-17T08:50:36.996Z,98.76
2022-08-17T08:53:19.025Z,98.33
2022-08-17T08:55:53.933Z,98.50
2022-08-17T08:58:42.382Z,97.12
2022-08-17T09:01:25.623Z,96.96
2022-08-17T09:04:24.834Z,94.95
2022-08-17T09:07:05.324Z,93.88
2022-08-17T09:09:42.680Z,94.70
2022-08-17T09:12:17.635Z,95.47
2022-08-17T09:14:53.356Z,94.91
2022-08-17T09:17:25.436Z,95.90
2022-08-17T09:19:57.564Z,96.88
2022-08-17T09:22:33.388Z,97.44
2022-08-17T09:25:08.542Z,96.34
2022-08-17T09:27:44.388Z,95.92
2022-08-17T09:30:12.309Z,95.80
2022-08-17T09:32:42.926Z,96.18
2022-08-17T09:35:15.055Z,94.64
2022-08-17T09:37:54.511Z,94.76
2022-08-17T09:40:25.768Z,94.13
2022-08-17T09:43:00.887Z,94.21
2022-08-17T09:45:34.549Z,94.86
2022-08-17T09:48:08.191Z,93.94
2022-08-17T09:51:05.341Z,93.35
2022-08-17T09:53:32.009Z,93.04
2022-08-17T09:56:12.652Z,93.91
2022-08-17T09:58:56.469Z,94.19
2022-08-17T10:01:36.643Z,93.89
2022-08-17T10:04:20.385Z,93.98
2022-08-17T10:06:55.500Z,94.79
2022-08-17T10:09:35.354Z,93.69
2022-08-17T10:12:33.129Z,93.15
2022-08-17T10:15:22.759Z,93.15
2022-08-17T10:18:12.759Z,92.17
2022-08-17T10:20:46.939Z,93.05
2022-08-17T10:23:36.365Z,93.66
2022-08-17T10:26:16.259Z,93.10
2022-08-17T10:28:49.768Z,90.51
2022-08-17T10:31:36.275Z,90.62
2022-08-17T10:34:30.559Z,92.92
2022-08-17T10:37:17.280Z,92.43
2022-08-17T10:39:52.070Z,88.21
2022-08-17T10:42:30.362Z,87.40
2022-08-17T10:45:03.594Z,86.09
2022-08-17T10:48:06.180Z,86.09
2022-08-17T10:51:01.641Z,87.23
2022-08-17T10:53:54.500Z,88.49
2022-08-17T10:56:37.558Z,89.71
2022-08-17T10:59:04.480Z,90.68
2022-08-17T11:02:11.112Z,90.07
2022-08-17T11:04:54.457Z,91.21
2022-08-17T11:07:37.379Z,92.55
2022-08-17T11:10:18.824Z,92.69
2022-08-17T11:12:56.126Z,93.93
2022-08-17T11:15:36.974Z,95.52
2022-08-17T11:18:29.111Z,94.94
2022-08-17T11:21:13.052Z,94.19
2022-08-17T11:23:57.359Z,94.45
2022-08-17T11:26:28.111Z,94.22
2022-08-17T11:28:59.609Z,94.18
2022-08-17T11:31:39.156Z,95.16
2022-08-17T11:34:14.147Z,94.90
2022-08-17T11:37:01.903Z,93.59
2022-08-17T11:39:41.947Z,93.27
2022-08-17T11:42:25.800Z,93.00
2022-08-17T11:44:56.072Z,92.75
2022-08-17T11:48:02.533Z,91.29
2022-08-17T11:51:09.715Z,92.00
2022-08-17T11:56:54.121Z,93.51
2022-08-17T11:59:59.772Z,93.37
2022-08-17T12:02:47.361Z,93.49
2022-08-17T12:05:34.896Z,93.73
2022-08-17T12:08:15.484Z,93.92
2022-08-17T12:11:00.296Z,94.29
2022-08-17T12:13:38.499Z,96.25
2022-08-17T12:16:08.380Z,96.18
2022-08-17T12:18:37.677Z,94.99
2022-08-17T12:21:18.329Z,95.17
2022-08-17T12:23:55.083Z,95.79
2022-08-17T12:26:26.317Z,93.44
2022-08-17T12:28:58.858Z,93.66
2022-08-17T12:31:31.092Z,94.07
2022-08-17T12:34:00.483Z,93.71
2022-08-17T12:36:28.869Z,94.46
2022-08-17T12:39:13.000Z,94.10
2022-08-17T12:41:44.043Z,94.62
2022-08-17T12:44:16.763Z,94.49
2022-08-17T12:46:51.471Z,94.24
2022-08-17T12:49:32.344Z,94.29
2022-08-17T12:52:20.009Z,94.72
2022-08-17T12:54:53.518Z,95.02
2022-08-17T12:57:23.405Z,95.60
2022-08-17T12:59:55.239Z,97.04
2022-08-17T13:02:30.102Z,97.65
2022-08-17T13:05:00.189Z,97.57
2022-08-17T13:07:36.691Z,97.41
2022-08-17T13:10:04.894Z,98.06
2022-08-17T13:12:34.451Z,97.91
2022-08-17T13:15:03.513Z,97.98
2022-08-17T13:17:34.802Z,98.40
2022-08-17T13:20:04.872Z,98.96
2022-08-17T13:22:32.759Z,99.03
2022-08-17T13:25:05.409Z,98.76
2022-08-17T13:27:33.467Z,98.52
2022-08-17T13:30:05.603Z,98.38
2022-08-17T13:32:37.121Z,97.42
2022-08-17T13:35:45.877Z,95.72
2022-08-17T13:38:39.588Z,96.91
2022-08-17T13:41:07.612Z,96.01
2022-08-17T13:43:44.979Z,95.49
2022-08-17T13:46:19.826Z,95.16
2022-08-17T13:48:57.082Z,93.45
2022-08-17T13:51:30.789Z,93.89
2022-08-17T13:54:05.619Z,94.72
2022-08-17T13:56:52.564Z,95.71
2022-08-17T13:59:36.339Z,95.99
2022-08-17T14:02:19.449Z,95.74
2022-08-17T14:04:47.790Z,96.10
2022-08-17T14:07:29.092Z,96.46
2022-08-17T14:09:59.329Z,95.29
2022-08-17T14:12:28.400Z,95.46
2022-08-17T14:14:56.549Z,97.09
2022-08-17T14:17:25.563Z,95.65
2022-08-17T14:19:52.673Z,95.73
2022-08-17T14:22:27.464Z,95.48
2022-08-17T14:24:57.567Z,94.71
2022-08-17T14:27:28.157Z,95.71
2022-08-17T14:29:56.463Z,95.93
2022-08-17T14:32:26.838Z,93.85
2022-08-17T14:34:56.820Z,93.52
2022-08-17T14:37:27.920Z,92.20
2022-08-17T14:39:55.889Z,92.49
2022-08-17T14:42:24.782Z,91.30
2022-08-17T14:44:51.781Z,92.60
2022-08-17T14:47:18.672Z,92.81
2022-08-17T14:49:48.501Z,92.85
2022-08-17T14:52:21.544Z,93.46
2022-08-17T14:54:51.624Z,93.18
2022-08-17T14:57:33.795Z,93.10
2022-08-17T15:00:02.472Z,90.63
2022-08-17T15:02:30.820Z,92.05
2022-08-17T15:05:04.721Z,91.20
2022-08-17T15:07:32.062Z,90.40
2022-08-17T15:10:00.619Z,88.85
2022-08-17T15:12:32.326Z,89.80
2022-08-17T15:15:01.116Z,90.46
2022-08-17T15:17:44.430Z,89.59
2022-08-17T15:20:16.461Z,87.46
2022-08-17T15:22:44.259Z,89.11
2022-08-17T15:25:12.065Z,90.05
2022-08-17T15:27:39.088Z,86.05
2022-08-17T15:30:07.759Z,87.44
2022-08-17T15:32:38.239Z,88.89
2022-08-17T15:35:07.938Z,88.84
2022-08-17T15:37:38.200Z,89.28
2022-08-17T15:40:07.284Z,88.39
2022-08-17T15:42:35.678Z,88.59
2022-08-17T15:45:07.645Z,89.24
2022-08-17T15:47:35.001Z,89.29
2022-08-17T15:50:01.998Z,89.22
2022-08-17T15:52:30.359Z,88.50
2022-08-17T15:55:00.711Z,88.17
2022-08-17T15:57:27.918Z,88.04
2022-08-17T15:59:58.731Z,89.19
2022-08-17T16:03:47.108Z,89.05
2022-08-17T16:05:24.784Z,88.94
2022-08-17T16:07:52.708Z,89.03
2022-08-17T16:10:22.291Z,89.75
2022-08-17T16:13:02.149Z,88.26
2022-08-17T16:15:31.191Z,88.76
2022-08-17T16:17:58.181Z,88.51
2022-08-17T16:20:25.186Z,87.63
2022-08-17T16:22:52.240Z,87.60
2022-08-17T16:25:23.144Z,87.14
2022-08-17T16:28:10.172Z,86.47
2022-08-17T16:30:38.313Z,87.01
2022-08-17T16:33:05.677Z,87.54
2022-08-17T16:35:33.481Z,86.28
2022-08-17T16:38:00.390Z,86.98
2022-08-17T16:40:31.271Z,86.63
2022-08-17T16:43:04.297Z,88.03
2022-08-17T16:45:36.651Z,88.54
2022-08-17T16:48:04.560Z,88.06
2022-08-17T16:50:32.237Z,87.42
2022-08-17T16:53:06.514Z,87.38
2022-08-17T16:55:35.859Z,86.84
2022-08-17T16:58:03.504Z,87.71
2022-08-17T17:00:30.900Z,86.30
2022-08-17T17:03:20.120Z,88.52
2022-08-17T17:05:58.904Z,87.71
2022-08-17T17:08:30.763Z,87.39
2022-08-17T17:11:08.956Z,86.18
2022-08-17T17:13:43.807Z,86.85
2022-08-17T17:16:18.409Z,87.91
2022-08-17T17:19:01.696Z,88.48
2022-08-17T17:21:37.583Z,87.86
2022-08-17T17:24:10.084Z,87.95
2022-08-17T17:26:55.334Z,87.58
2022-08-17T17:29:48.741Z,86.15
2022-08-17T17:32:21.910Z,86.56
2022-08-17T17:34:53.361Z,86.08
2022-08-17T17:37:25.646Z,86.31
2022-08-17T17:39:56.701Z,85.92
2022-08-17T17:42:28.943Z,86.04
2022-08-17T17:45:06.254Z,85.33
2022-08-17T17:47:34.459Z,86.07
2022-08-17T17:50:03.758Z,86.78
2022-08-17T17:52:38.433Z,88.31
2022-08-17T17:55:15.672Z,87.33
2022-08-17T17:57:56.206Z,87.12
2022-08-17T18:00:25.764Z,87.42
2022-08-17T18:03:04.784Z,87.36
2022-08-17T18:05:48.759Z,87.22
2022-08-17T18:08:35.192Z,87.74
2022-08-17T18:11:13.540Z,87.64
2022-08-17T18:13:54.235Z,87.63
2022-08-17T18:16:22.375Z,87.02
2022-08-17T18:18:50.505Z,86.82
2022-08-17T18:21:19.696Z,86.09
2022-08-17T18:23:47.472Z,85.66
2022-08-17T18:26:49.102Z,86.21
2022-08-17T18:29:31.304Z,86.63
2022-08-17T18:32:21.707Z,86.97
2022-08-17T18:34:51.944Z,86.78
2022-08-17T18:37:40.854Z,87.13
2022-08-17T18:40:29.556Z,86.92
2022-08-17T18:43:02.883Z,87.11
2022-08-17T18:45:41.193Z,87.01
2022-08-17T18:48:21.730Z,86.95
2022-08-17T18:50:53.351Z,87.14
2022-08-17T18:53:38.748Z,87.48
2022-08-17T18:56:26.943Z,86.95
2022-08-17T18:59:13.497Z,86.80
2022-08-17T19:01:53.502Z,87.37
2022-08-17T19:04:34.782Z,87.07
2022-08-17T19:07:22.164Z,87.25
2022-08-17T19:09:54.934Z,86.29
2022-08-17T19:12:27.704Z,85.78
2022-08-17T19:14:56.980Z,84.72
2022-08-17T19:17:32.005Z,84.34
2022-08-17T19:20:02.479Z,84.30
2022-08-17T19:22:38.418Z,84.62
2022-08-17T19:25:16.027Z,84.47
2022-08-17T19:27:50.730Z,83.43
2022-08-17T19:30:24.993Z,83.17
2022-08-17T19:32:54.356Z,83.72
2022-08-17T19:35:24.700Z,84.34
2022-08-17T19:38:03.239Z,85.56
2022-08-17T19:40:52.358Z,86.81
2022-08-17T19:43:26.574Z,87.31
2022-08-17T19:46:06.303Z,87.32
2022-08-17T19:48:46.400Z,88.03
2022-08-17T19:51:18.048Z,88.72
2022-08-17T19:54:05.513Z,89.38
2022-08-17T19:56:41.779Z,89.54
2022-08-17T19:59:15.774Z,89.49
2022-08-17T20:01:46.816Z,89.68
2022-08-17T20:04:35.921Z,90.15
2022-08-17T20:07:08.081Z,90.04
2022-08-17T20:09:38.207Z,90.01
2022-08-17T20:12:09.694Z,90.34
2022-08-17T20:14:55.943Z,90.25
2022-08-17T20:17:25.041Z,90.36
2022-08-17T20:20:04.760Z,90.43
2022-08-17T20:22:52.112Z,90.38
2022-08-17T20:25:30.583Z,90.22
2022-08-17T20:28:06.177Z,90.60
2022-08-17T20:30:39.987Z,90.40
2022-08-17T20:33:22.003Z,90.19
2022-08-17T20:36:04.829Z,89.98
2022-08-17T20:38:41.068Z,89.97
2022-08-17T20:41:12.960Z,89.44
2022-08-17T20:43:52.106Z,89.71
2022-08-17T20:46:30.445Z,89.86
2022-08-17T20:49:14.695Z,90.27
2022-08-17T20:52:00.854Z,90.52
2022-08-17T20:54:46.766Z,90.92
2022-08-17T20:57:48.569Z,91.39
2022-08-17T21:00:42.469Z,92.12
2022-08-17T21:03:50.997Z,91.80
2022-08-17T21:06:24.215Z,92.06
2022-08-17T21:08:58.850Z,92.23
2022-08-17T21:12:02.465Z,91.93
2022-08-17T21:14:56.444Z,90.56
2022-08-17T21:17:45.392Z,89.02
2022-08-17T21:20:25.438Z,89.08
2022-08-17T21:23:20.508Z,89.34
2022-08-17T21:26:06.138Z,89.29
2022-08-17T21:29:00.218Z,89.33
2022-08-17T21:31:34.173Z,89.62
2022-08-17T21:34:25.799Z,89.54
2022-08-17T21:36:52.849Z,89.32
2022-08-17T21:39:24.241Z,89.39
2022-08-17T21:41:59.873Z,89.41
2022-08-17T21:44:33.771Z,89.50
2022-08-17T21:47:19.009Z,89.42
2022-08-17T21:49:45.817Z,89.69
2022-08-17T21:52:15.205Z,89.75
2022-08-17T21:54:49.031Z,90.03
2022-08-17T21:57:21.009Z,89.96
2022-08-17T21:59:52.583Z,89.95
2022-08-17T22:02:21.587Z,90.42
2022-08-17T22:05:00.113Z,89.90
2022-08-17T22:07:36.447Z,90.30
2022-08-17T22:10:05.562Z,90.22
2022-08-17T22:12:33.736Z,90.26
2022-08-17T22:15:04.472Z,90.11
2022-08-17T22:17:35.601Z,89.97
2022-08-17T22:20:09.460Z,90.15
2022-08-17T22:22:58.937Z,90.20
2022-08-17T22:25:28.159Z,89.72
2022-08-17T22:27:57.359Z,89.85
2022-08-17T22:30:42.811Z,89.88
2022-08-17T22:33:30.427Z,90.11
2022-08-17T22:36:10.005Z,90.35
2022-08-17T22:38:38.116Z,91.11
2022-08-17T22:41:32.008Z,91.57
2022-08-17T22:44:07.589Z,91.51
2022-08-17T22:46:38.960Z,91.63
2022-08-17T22:49:06.304Z,92.51
2022-08-17T22:51:33.669Z,94.68
2022-08-17T22:54:31.609Z,96.73
2022-08-17T22:57:20.499Z,97.63
2022-08-17T22:59:51.607Z,98.27
2022-08-17T23:02:22.780Z,98.66
2022-08-17T23:04:51.892Z,99.31
2022-08-17T23:07:20.250Z,99.67
2022-08-17T23:09:47.365Z,99.73
2022-08-17T23:12:18.713Z,99.98
2022-08-17T23:14:47.032Z,100.00
2022-08-17T23:17:16.498Z,100.00
2022-08-17T23:19:43.612Z,100.00
2022-08-17T23:22:11.279Z,100.00
2022-08-17T23:24:42.623Z,100.00
2022-08-17T23:27:09.803Z,100.00
2022-08-17T23:29:39.444Z,99.92
2022-08-17T23:32:07.013Z,100.00
2022-08-17T23:34:37.627Z,100.00
2022-08-17T23:37:05.404Z,100.00
2022-08-17T23:39:32.356Z,100.00
2022-08-17T23:42:01.244Z,100.00
2022-08-17T23:44:28.880Z,100.00
2022-08-17T23:46:55.983Z,100.00
2022-08-17T23:49:25.228Z,100.00
2022-08-17T23:51:56.149Z,100.00
2022-08-17T23:54:28.169Z,100.00
2022-08-17T23:56:55.069Z,100.00
2022-08-17T23:59:23.194Z,100.00
